Union Trader — SVAX6 — position and weather

sailwx.info

Track history (hours):
 
Tides and Currents Weather Stations Pressure Air Temp Water Temp Dewpoint Dewpoint Depression Visibility Wind Speed Wind Dir Waves Ship Positions

Union Trader

Last reported at 2015-Jan-19 05:09 UTC. Time now 2015-Jan-30 18:39 UTC.
Position N 39°01' E 121°41'.
Warning: this ship's position is 11 days out of date.

Length 190 m; draft 5.1 m.

Type: Cargo ship. MMSI: 240982000.

Date/timePositionNaut miles runAvg speedWind from/ knotsBaromVisibWave heightAir tempDewpointWater temp
2015-Jan-19 05:09N 39°01' E 121°41'0 0.0
2015-Jan-19 04:33N 39°01' E 121°41'0 0.0
2015-Jan-19 03:33N 39°01' E 121°41'  
2015-Jan-14 01:31N 39°01' E 121°41'0 0.0
2015-Jan-14 00:31N 39°01' E 121°41'0 0.0
2015-Jan-13 23:31N 39°01' E 121°41'0 0.0
2015-Jan-13 22:31N 39°01' E 121°41'0 0.0
2015-Jan-13 21:19N 39°01' E 121°41'0 0.0
2015-Jan-13 20:25N 39°01' E 121°41'0 0.0
2015-Jan-13 19:31N 39°01' E 121°41'0 0.0
2015-Jan-13 18:31N 39°01' E 121°41'0 0.0
2015-Jan-13 17:31N 39°01' E 121°41'0 0.0
2015-Jan-13 16:31N 39°01' E 121°41'0 0.0
2015-Jan-13 15:31N 39°01' E 121°41'0 0.0
2015-Jan-13 14:25N 39°01' E 121°41'0 0.0
2015-Jan-13 13:31N 39°01' E 121°41'0 0.0
2015-Jan-13 12:25N 39°01' E 121°41'0 0.0
2015-Jan-13 11:31N 39°01' E 121°41'0 0.0
2015-Jan-13 10:19N 39°01' E 121°41'0 0.0
2015-Jan-13 08:13N 39°01' E 121°41'0 0.0
2015-Jan-13 07:25N 39°01' E 121°41'0 0.0
2015-Jan-13 06:25N 39°01' E 121°41'0 0.0
2015-Jan-13 05:31N 39°01' E 121°41'0 0.0
2015-Jan-13 04:31N 39°01' E 121°41'0 0.0
2015-Jan-13 03:31N 39°01' E 121°41'0 0.0
2015-Jan-13 02:31N 39°01' E 121°41'0 0.0
2015-Jan-13 01:31N 39°01' E 121°41'0 0.0
2015-Jan-13 00:25N 39°01' E 121°41'0 0.0
2015-Jan-12 23:25N 39°01' E 121°41'0 0.0
2015-Jan-12 14:13N 39°01' E 121°41'0 0.0
2015-Jan-12 13:31N 39°01' E 121°41'0 0.0
2015-Jan-12 12:19N 39°01' E 121°41'0 0.0
2015-Jan-12 11:31N 39°01' E 121°41'0 0.0
2015-Jan-12 10:13N 39°01' E 121°41'0 0.0
2015-Jan-12 09:19N 39°01' E 121°41'0 0.0
2015-Jan-12 08:31N 39°01' E 121°41'0 0.0
2015-Jan-12 07:25N 39°01' E 121°41'0 0.0
2015-Jan-12 06:33N 39°01' E 121°41'3 3.5
2015-Jan-12 05:33N 38°57' E 121°42'8 7.8
2015-Jan-12 04:33N 38°51' E 121°48'1010.4
2015-Jan-12 03:34N 38°54' E 122°00'1 0.5
2015-Jan-12 01:24N 38°55' E 122°02'0 0.0
2015-Jan-11 23:05N 38°55' E 122°02'0 0.1
2015-Jan-11 22:24N 38°55' E 122°02'0 0.0
2015-Jan-11 12:29N 38°55' E 122°02'0 0.0
2015-Jan-11 11:17N 38°55' E 122°02'0 0.0
2015-Jan-11 10:05N 38°55' E 122°02'0 0.1
2015-Jan-11 03:14N 38°54' E 122°02'6 8.0
2015-Jan-11 02:31N 38°49' E 122°04'1111.9
2015-Jan-11 01:33N 38°38' E 122°09'11111.1
2015-Jan-10 15:32N 37°09' E 123°33'  
Track history (hours):
 
Tides and Currents Weather Stations Pressure Air Temp Water Temp Dewpoint Dewpoint Depression Visibility Wind Speed Wind Dir Waves Ship Positions

Union Trader

Last reported at 2015-Jan-19 05:09 UTC. Time now 2015-Jan-30 18:39 UTC.
Position N 39°01' E 121°41'.
Warning: this ship's position is 11 days out of date.

Length 190 m; draft 5.1 m.

Type: Cargo ship. MMSI: 240982000.

Date/timePositionNaut miles runAvg speedWind from/ knotsBaromVisibWave heightAir tempDewpointWater temp
2015-Jan-19 05:09N 39°01' E 121°41'0 0.0
2015-Jan-19 04:33N 39°01' E 121°41'0 0.0
2015-Jan-19 03:33N 39°01' E 121°41'  
2015-Jan-14 01:31N 39°01' E 121°41'0 0.0
2015-Jan-14 00:31N 39°01' E 121°41'0 0.0
2015-Jan-13 23:31N 39°01' E 121°41'0 0.0
2015-Jan-13 22:31N 39°01' E 121°41'0 0.0
2015-Jan-13 21:19N 39°01' E 121°41'0 0.0
2015-Jan-13 20:25N 39°01' E 121°41'0 0.0
2015-Jan-13 19:31N 39°01' E 121°41'0 0.0
2015-Jan-13 18:31N 39°01' E 121°41'0 0.0
2015-Jan-13 17:31N 39°01' E 121°41'0 0.0
2015-Jan-13 16:31N 39°01' E 121°41'0 0.0
2015-Jan-13 15:31N 39°01' E 121°41'0 0.0
2015-Jan-13 14:25N 39°01' E 121°41'0 0.0
2015-Jan-13 13:31N 39°01' E 121°41'0 0.0
2015-Jan-13 12:25N 39°01' E 121°41'0 0.0
2015-Jan-13 11:31N 39°01' E 121°41'0 0.0
2015-Jan-13 10:19N 39°01' E 121°41'0 0.0
2015-Jan-13 08:13N 39°01' E 121°41'0 0.0
2015-Jan-13 07:25N 39°01' E 121°41'0 0.0
2015-Jan-13 06:25N 39°01' E 121°41'0 0.0
2015-Jan-13 05:31N 39°01' E 121°41'0 0.0
2015-Jan-13 04:31N 39°01' E 121°41'0 0.0
2015-Jan-13 03:31N 39°01' E 121°41'0 0.0
2015-Jan-13 02:31N 39°01' E 121°41'0 0.0
2015-Jan-13 01:31N 39°01' E 121°41'0 0.0
2015-Jan-13 00:25N 39°01' E 121°41'0 0.0
2015-Jan-12 23:25N 39°01' E 121°41'0 0.0
2015-Jan-12 14:13N 39°01' E 121°41'0 0.0
2015-Jan-12 13:31N 39°01' E 121°41'0 0.0
2015-Jan-12 12:19N 39°01' E 121°41'0 0.0
2015-Jan-12 11:31N 39°01' E 121°41'0 0.0
2015-Jan-12 10:13N 39°01' E 121°41'0 0.0
2015-Jan-12 09:19N 39°01' E 121°41'0 0.0
2015-Jan-12 08:31N 39°01' E 121°41'0 0.0
2015-Jan-12 07:25N 39°01' E 121°41'0 0.0
2015-Jan-12 06:33N 39°01' E 121°41'3 3.5
2015-Jan-12 05:33N 38°57' E 121°42'8 7.8
2015-Jan-12 04:33N 38°51' E 121°48'1010.4
2015-Jan-12 03:34N 38°54' E 122°00'1 0.5
2015-Jan-12 01:24N 38°55' E 122°02'0 0.0
2015-Jan-11 23:05N 38°55' E 122°02'0 0.1
2015-Jan-11 22:24N 38°55' E 122°02'0 0.0
2015-Jan-11 12:29N 38°55' E 122°02'0 0.0
2015-Jan-11 11:17N 38°55' E 122°02'0 0.0
2015-Jan-11 10:05N 38°55' E 122°02'0 0.1
2015-Jan-11 03:14N 38°54' E 122°02'6 8.0
2015-Jan-11 02:31N 38°49' E 122°04'1111.9
2015-Jan-11 01:33N 38°38' E 122°09'11111.1
2015-Jan-10 15:32N 37°09' E 123°33'  

Dump ship's entire track history